createdAt,value
2018-03-03T00:00:33.770Z,-6.37
2018-03-03T00:01:42.584Z,-6.4
2018-03-03T00:02:51.654Z,-6.39
2018-03-03T00:04:00.474Z,-6.37
2018-03-03T00:05:09.297Z,-6.52
2018-03-03T00:06:18.114Z,-6.42
2018-03-03T00:07:26.932Z,-6.55
2018-03-03T00:08:35.750Z,-6.5
2018-03-03T00:09:44.575Z,-6.37
2018-03-03T00:10:53.396Z,-6.39
2018-03-03T00:12:02.212Z,-6.46
2018-03-03T00:13:11.029Z,-6.44
2018-03-03T00:14:19.997Z,-6.52
2018-03-03T00:15:28.818Z,-6.58
2018-03-03T00:16:38.198Z,-6.52
2018-03-03T00:17:47.016Z,-6.43
2018-03-03T00:18:55.838Z,-6.61
2018-03-03T00:20:04.661Z,-6.42
2018-03-03T00:21:13.478Z,-6.55
2018-03-03T00:22:22.305Z,-6.52
2018-03-03T00:23:31.120Z,-6.44
2018-03-03T00:24:39.939Z,-6.49
2018-03-03T00:25:48.909Z,-6.61
2018-03-03T00:26:57.728Z,-6.58
2018-03-03T00:28:06.548Z,-6.55
2018-03-03T00:29:15.366Z,-6.65
2018-03-03T00:30:24.184Z,-6.63
2018-03-03T00:31:33.058Z,-6.59
2018-03-03T00:32:41.876Z,-6.73
2018-03-03T00:33:50.692Z,-6.66
2018-03-03T00:34:59.510Z,-6.65
2018-03-03T00:36:08.332Z,-6.69
2018-03-03T00:37:17.151Z,-6.77
2018-03-03T00:38:25.973Z,-6.73
2018-03-03T00:39:34.792Z,-6.69
2018-03-03T00:40:43.612Z,-6.69
2018-03-03T00:41:52.430Z,-6.55
2018-03-03T00:43:01.400Z,-6.58
2018-03-03T00:44:10.251Z,-6.65
2018-03-03T00:45:19.040Z,-6.5
2018-03-03T00:46:27.860Z,-6.61
2018-03-03T00:47:36.679Z,-6.63
2018-03-03T00:48:45.645Z,-6.52
2018-03-03T00:49:54.463Z,-6.68
2018-03-03T00:51:03.570Z,-6.55
2018-03-03T00:52:12.389Z,-6.61
2018-03-03T00:53:21.211Z,-6.65
2018-03-03T00:54:30.359Z,-6.77
2018-03-03T00:55:39.177Z,-6.68
2018-03-03T00:56:48.000Z,-6.73
2018-03-03T00:57:57.095Z,-6.54
2018-03-03T00:59:05.916Z,-6.5
2018-03-03T01:00:15.161Z,-6.52
2018-03-03T01:01:23.984Z,-6.59
2018-03-03T01:02:32.803Z,-6.61
2018-03-03T01:03:41.897Z,-6.59
2018-03-03T01:04:50.718Z,-6.73
2018-03-03T01:05:59.691Z,-6.69
2018-03-03T01:07:08.785Z,-6.69
2018-03-03T01:08:17.604Z,-6.82
2018-03-03T01:09:26.425Z,-6.77
2018-03-03T01:10:35.246Z,-6.76
2018-03-03T01:11:44.214Z,-6.76
2018-03-03T01:12:53.033Z,-6.73
2018-03-03T01:14:01.852Z,-6.79
2018-03-03T01:15:10.673Z,-6.82
2018-03-03T01:16:19.494Z,-6.77
2018-03-03T01:17:28.691Z,-6.82
2018-03-03T01:18:37.509Z,-6.87
2018-03-03T01:19:46.327Z,-6.89
2018-03-03T01:20:55.146Z,-6.83
2018-03-03T01:22:03.968Z,-6.89
2018-03-03T01:23:12.886Z,-6.84
2018-03-03T01:24:21.706Z,-6.74
2018-03-03T01:25:30.524Z,-6.94
2018-03-03T01:26:39.344Z,-6.89
2018-03-03T01:27:48.163Z,-6.92
2018-03-03T01:28:57.133Z,-6.95
2018-03-03T01:30:06.234Z,-6.97
2018-03-03T01:31:15.054Z,-6.91
2018-03-03T01:32:23.875Z,-6.87
2018-03-03T01:33:32.696Z,-6.86
2018-03-03T01:34:41.514Z,-6.91
2018-03-03T01:35:50.614Z,-6.92
2018-03-03T01:36:59.437Z,-6.84
2018-03-03T01:38:08.534Z,-6.97
2018-03-03T01:39:17.626Z,-7.01
2018-03-03T01:40:26.552Z,-6.87
2018-03-03T01:41:35.369Z,-6.91
2018-03-03T01:42:44.469Z,-6.87
2018-03-03T01:43:53.287Z,-6.98
2018-03-03T01:45:02.108Z,-6.87
2018-03-03T01:46:11.227Z,-6.91
2018-03-03T01:47:20.322Z,-6.84
2018-03-03T01:48:29.143Z,-6.89
2018-03-03T01:49:38.236Z,-6.87
2018-03-03T01:50:47.063Z,-6.95
2018-03-03T01:51:56.024Z,-7.04
2018-03-03T01:53:04.846Z,-7.11
2018-03-03T01:54:13.669Z,-7.07
2018-03-03T01:55:22.488Z,-6.98
2018-03-03T01:56:31.341Z,-6.98
2018-03-03T01:57:40.426Z,-6.95
2018-03-03T01:58:49.242Z,-7.11
2018-03-03T01:59:58.062Z,-7.23
2018-03-03T02:01:06.881Z,-7.23
2018-03-03T02:02:15.710Z,-7
2018-03-03T02:03:24.568Z,-7.15
2018-03-03T02:04:33.388Z,-7.16
2018-03-03T02:05:42.486Z,-7.13
2018-03-03T02:06:51.306Z,-7.15
2018-03-03T02:08:00.125Z,-7.12
2018-03-03T02:09:08.944Z,-7.25
2018-03-03T02:10:17.766Z,-7.12
2018-03-03T02:11:26.859Z,-7.26
2018-03-03T02:12:35.677Z,-7.15
2018-03-03T02:13:44.498Z,-7.18
2018-03-03T02:14:53.610Z,-7.25
2018-03-03T02:16:02.425Z,-7.22
2018-03-03T02:17:11.241Z,-7.21
2018-03-03T02:18:20.060Z,-7.16
2018-03-03T02:19:28.877Z,-7.22
2018-03-03T02:20:38.073Z,-7.16
2018-03-03T02:21:46.892Z,-7.21
2018-03-03T02:22:55.986Z,-7.22
2018-03-03T02:24:04.805Z,-7.12
2018-03-03T02:25:13.622Z,-7.16
2018-03-03T02:26:22.740Z,-7.16
2018-03-03T02:27:31.559Z,-7.15
2018-03-03T02:28:40.427Z,-7.22
2018-03-03T02:29:49.201Z,-7.16
2018-03-03T02:30:58.020Z,-7.15
2018-03-03T02:32:07.264Z,-7.21
2018-03-03T02:33:16.081Z,-7.11
2018-03-03T02:34:24.919Z,-7.19
2018-03-03T02:35:33.727Z,-7.15
2018-03-03T02:36:42.543Z,-7.12
2018-03-03T02:37:51.514Z,-7.22
2018-03-03T02:39:00.337Z,-7.16
2018-03-03T02:40:09.431Z,-7.21
2018-03-03T02:41:18.253Z,-7.22
2018-03-03T02:42:27.070Z,-7.18
2018-03-03T02:43:35.991Z,-7.18
2018-03-03T02:44:44.809Z,-7.21
2018-03-03T02:45:53.920Z,-7.16
2018-03-03T02:47:02.726Z,-7.26
2018-03-03T02:48:11.544Z,-7.26
2018-03-03T02:49:20.365Z,-7.4
2018-03-03T02:50:29.193Z,-7.19
2018-03-03T02:51:38.011Z,-7.18
2018-03-03T02:52:46.835Z,-7.25
2018-03-03T02:53:55.654Z,-7.21
2018-03-03T02:55:04.473Z,-7.23
2018-03-03T02:56:13.299Z,-7.25
2018-03-03T02:57:22.398Z,-7.22
2018-03-03T02:58:31.217Z,-7.18
2018-03-03T02:59:40.035Z,-7.16
2018-03-03T03:00:49.243Z,-7.26
2018-03-03T03:01:58.055Z,-7.33
2018-03-03T03:03:07.154Z,-7.41
2018-03-03T03:04:16.531Z,-7.21
2018-03-03T03:05:25.350Z,-7.25
2018-03-03T03:06:34.269Z,-7.36
2018-03-03T03:07:43.090Z,-7.37
2018-03-03T03:08:51.906Z,-7.36
2018-03-03T03:10:00.725Z,-7.36
2018-03-03T03:11:09.544Z,-7.34
2018-03-03T03:12:18.513Z,-7.34
2018-03-03T03:13:27.617Z,-7.4
2018-03-03T03:14:36.436Z,-7.44
2018-03-03T03:15:45.258Z,-7.43
2018-03-03T03:16:54.077Z,-7.43
2018-03-03T03:18:02.997Z,-7.43
2018-03-03T03:19:11.815Z,-7.5
2018-03-03T03:20:20.632Z,-7.48
2018-03-03T03:21:29.452Z,-7.41
2018-03-03T03:22:38.270Z,-7.39
2018-03-03T03:23:47.239Z,-7.44
2018-03-03T03:24:56.059Z,-7.36
2018-03-03T03:26:04.880Z,-7.19
2018-03-03T03:27:13.972Z,-7.34
2018-03-03T03:28:22.791Z,-7.41
2018-03-03T03:29:31.610Z,-7.51
2018-03-03T03:30:40.429Z,-7.48
2018-03-03T03:31:49.247Z,-7.58
2018-03-03T03:32:58.067Z,-7.51
2018-03-03T03:34:06.886Z,-7.43
2018-03-03T03:35:15.703Z,-7.51
2018-03-03T03:36:24.521Z,-7.54
2018-03-03T03:37:33.338Z,-7.44
2018-03-03T03:38:42.157Z,-7.4
2018-03-03T03:39:51.256Z,-7.48
2018-03-03T03:41:00.075Z,-7.36
2018-03-03T03:42:08.892Z,-7.46
2018-03-03T03:43:17.709Z,-7.48
2018-03-03T03:44:26.532Z,-7.33
2018-03-03T03:45:35.344Z,-7.55
2018-03-03T03:46:44.450Z,-7.43
2018-03-03T03:47:53.269Z,-7.55
2018-03-03T03:49:02.105Z,-7.62
2018-03-03T03:50:11.183Z,-7.6
2018-03-03T03:51:20.000Z,-7.51
2018-03-03T03:52:29.018Z,-7.51
2018-03-03T03:53:37.836Z,-7.43
2018-03-03T03:54:46.655Z,-7.44
2018-03-03T03:55:55.474Z,-7.44
2018-03-03T03:57:04.294Z,-7.37
2018-03-03T03:58:13.541Z,-7.43
2018-03-03T03:59:22.360Z,-7.4
2018-03-03T04:00:31.453Z,-7.54
2018-03-03T04:01:40.273Z,-7.43
2018-03-03T04:02:49.088Z,-7.55
2018-03-03T04:03:57.910Z,-7.58
2018-03-03T04:05:07.011Z,-7.55
2018-03-03T04:06:15.828Z,-7.62
2018-03-03T04:07:24.653Z,-7.57
2018-03-03T04:08:33.755Z,-7.62
2018-03-03T04:09:42.952Z,-7.61
2018-03-03T04:10:51.764Z,-7.6
2018-03-03T04:12:00.581Z,-7.62
2018-03-03T04:13:09.400Z,-7.62
2018-03-03T04:14:18.217Z,-7.64
2018-03-03T04:15:27.184Z,-7.55
2018-03-03T04:16:36.006Z,-7.58
2018-03-03T04:17:45.097Z,-7.54
2018-03-03T04:18:53.917Z,-7.57
2018-03-03T04:20:02.745Z,-7.57
2018-03-03T04:21:12.212Z,-7.52
2018-03-03T04:22:21.033Z,-7.51
2018-03-03T04:23:29.857Z,-7.52
2018-03-03T04:24:38.673Z,-7.33
2018-03-03T04:25:47.491Z,-7.52
2018-03-03T04:26:56.311Z,-7.51
2018-03-03T04:28:05.130Z,-7.54
2018-03-03T04:29:13.950Z,-7.58
2018-03-03T04:30:22.767Z,-7.62
2018-03-03T04:31:31.859Z,-7.57
2018-03-03T04:32:40.976Z,-7.58
2018-03-03T04:33:49.794Z,-7.58
2018-03-03T04:34:58.612Z,-7.61
2018-03-03T04:36:07.428Z,-7.66
2018-03-03T04:37:16.247Z,-7.64
2018-03-03T04:38:25.164Z,-7.61
2018-03-03T04:39:33.980Z,-7.54
2018-03-03T04:40:42.798Z,-7.61
2018-03-03T04:41:51.616Z,-7.6
2018-03-03T04:43:00.435Z,-7.57
2018-03-03T04:44:09.254Z,-7.62
2018-03-03T04:45:18.072Z,-7.6
2018-03-03T04:46:26.892Z,-7.57
2018-03-03T04:47:35.709Z,-7.57
2018-03-03T04:48:44.526Z,-7.57
2018-03-03T04:49:53.495Z,-7.6
2018-03-03T04:51:02.312Z,-7.58
2018-03-03T04:52:11.131Z,-7.64
2018-03-03T04:53:20.226Z,-7.66
2018-03-03T04:54:29.318Z,-7.52
2018-03-03T04:55:38.137Z,-7.55
2018-03-03T04:56:46.955Z,-7.58
2018-03-03T04:57:55.775Z,-7.55
2018-03-03T04:59:04.589Z,-7.62
2018-03-03T05:00:13.406Z,-7.58
2018-03-03T05:01:22.372Z,-7.6
2018-03-03T05:02:31.196Z,-7.55
2018-03-03T05:03:40.289Z,-7.71
2018-03-03T05:04:49.108Z,-7.6
2018-03-03T05:05:58.209Z,-7.71
2018-03-03T05:07:07.169Z,-7.71
2018-03-03T05:08:15.988Z,-7.75
2018-03-03T05:09:24.805Z,-7.75
2018-03-03T05:10:33.621Z,-7.72
2018-03-03T05:11:42.721Z,-7.83
2018-03-03T05:12:51.839Z,-7.69
2018-03-03T05:14:00.658Z,-7.62
2018-03-03T05:15:09.477Z,-7.71
2018-03-03T05:16:18.298Z,-7.64
2018-03-03T05:17:27.114Z,-7.72
2018-03-03T05:18:36.083Z,-7.62
2018-03-03T05:19:45.177Z,-7.73
2018-03-03T05:20:53.996Z,-7.75
2018-03-03T05:22:02.815Z,-7.72
2018-03-03T05:23:11.633Z,-7.75
2018-03-03T05:24:20.448Z,-7.78
2018-03-03T05:25:29.547Z,-7.64
2018-03-03T05:26:38.364Z,-7.73
2018-03-03T05:27:47.183Z,-7.76
2018-03-03T05:28:56.002Z,-7.72
2018-03-03T05:30:04.872Z,-7.83
2018-03-03T05:31:13.690Z,-7.72
2018-03-03T05:32:22.507Z,-7.86
2018-03-03T05:33:31.606Z,-7.8
2018-03-03T05:34:40.427Z,-7.8
2018-03-03T05:35:49.397Z,-7.75
2018-03-03T05:36:58.489Z,-7.75
2018-03-03T05:38:07.309Z,-7.86
2018-03-03T05:39:16.130Z,-7.83
2018-03-03T05:40:24.946Z,-7.79
2018-03-03T05:41:33.868Z,-7.76
2018-03-03T05:42:42.686Z,-7.73
2018-03-03T05:43:51.501Z,-7.64
2018-03-03T05:45:00.319Z,-7.78
2018-03-03T05:46:09.137Z,-7.76
2018-03-03T05:47:18.009Z,-7.72
2018-03-03T05:48:27.552Z,-7.9
2018-03-03T05:49:36.647Z,-7.83
2018-03-03T05:50:45.462Z,-7.8
2018-03-03T05:51:54.280Z,-7.72
2018-03-03T05:53:03.247Z,-7.76
2018-03-03T05:54:12.341Z,-7.82
2018-03-03T05:55:21.161Z,-7.72
2018-03-03T05:56:30.252Z,-7.93
2018-03-03T05:57:39.348Z,-7.94
2018-03-03T05:58:48.266Z,-7.79
2018-03-03T05:59:57.086Z,-7.87
2018-03-03T06:01:05.913Z,-7.72
2018-03-03T06:02:14.726Z,-7.66
2018-03-03T06:03:23.543Z,-7.73
2018-03-03T06:04:32.362Z,-7.83
2018-03-03T06:05:41.180Z,-7.78
2018-03-03T06:06:49.998Z,-7.8
2018-03-03T06:07:58.815Z,-7.75
2018-03-03T06:09:07.634Z,-7.93
2018-03-03T06:10:16.555Z,-7.97
2018-03-03T06:11:25.373Z,-7.86
2018-03-03T06:12:34.192Z,-7.83
2018-03-03T06:13:43.010Z,-7.86
2018-03-03T06:14:51.827Z,-7.96
2018-03-03T06:16:01.046Z,-8.01
2018-03-03T06:17:09.862Z,-8.05
2018-03-03T06:18:18.682Z,-7.99
2018-03-03T06:19:27.500Z,-8.08
2018-03-03T06:20:36.321Z,-8.09
2018-03-03T06:21:45.237Z,-8.01
2018-03-03T06:22:54.063Z,-8.06
2018-03-03T06:24:02.884Z,-7.96
2018-03-03T06:25:11.705Z,-8.13
2018-03-03T06:26:20.531Z,-8.12
2018-03-03T06:27:29.721Z,-8.13
2018-03-03T06:28:38.542Z,-8.11
2018-03-03T06:29:47.629Z,-8.12
2018-03-03T06:30:56.449Z,-8.05
2018-03-03T06:32:05.265Z,-8.02
2018-03-03T06:33:14.234Z,-7.93
2018-03-03T06:34:23.051Z,-8.02
2018-03-03T06:35:31.868Z,-7.71
2018-03-03T06:36:40.686Z,-7.82
2018-03-03T06:37:49.512Z,-7.91
2018-03-03T06:38:58.376Z,-8.05
2018-03-03T06:40:07.468Z,-8.09
2018-03-03T06:41:16.285Z,-7.97
2018-03-03T06:42:25.103Z,-7.96
2018-03-03T06:43:33.921Z,-8.02
2018-03-03T06:44:43.040Z,-8.01
2018-03-03T06:45:51.859Z,-7.94
2018-03-03T06:47:00.676Z,-8.05
2018-03-03T06:48:09.492Z,-7.94
2018-03-03T06:49:18.589Z,-7.99
2018-03-03T06:50:27.781Z,-7.97
2018-03-03T06:51:36.880Z,-8.01
2018-03-03T06:52:45.701Z,-8.01
2018-03-03T06:53:54.520Z,-8.06
2018-03-03T06:55:03.337Z,-7.89
2018-03-03T06:56:12.682Z,-8.02
2018-03-03T06:57:21.501Z,-7.96
2018-03-03T06:58:30.317Z,-7.87
2018-03-03T06:59:39.410Z,-8.01
2018-03-03T07:00:48.231Z,-7.97
2018-03-03T07:01:57.152Z,-7.91
2018-03-03T07:03:05.972Z,-7.87
2018-03-03T07:04:14.792Z,-7.9
2018-03-03T07:05:23.617Z,-7.82
2018-03-03T07:06:32.437Z,-7.91
2018-03-03T07:07:41.322Z,-7.89
2018-03-03T07:08:50.124Z,-7.79
2018-03-03T07:09:58.942Z,-7.79
2018-03-03T07:11:07.762Z,-7.8
2018-03-03T07:12:16.861Z,-7.83
2018-03-03T07:13:25.680Z,-7.86
2018-03-03T07:14:34.773Z,-7.57
2018-03-03T07:15:43.592Z,-7.72
2018-03-03T07:16:52.418Z,-7.73
2018-03-03T07:18:01.230Z,-7.78
2018-03-03T07:19:10.049Z,-7.69
2018-03-03T07:20:18.865Z,-7.75
2018-03-03T07:21:27.685Z,-7.76
2018-03-03T07:22:36.556Z,-7.73
2018-03-03T07:23:45.325Z,-7.64
2018-03-03T07:24:54.395Z,-7.66
2018-03-03T07:26:03.217Z,-7.62
2018-03-03T07:27:12.036Z,-7.71
2018-03-03T07:28:21.159Z,-7.55
2018-03-03T07:29:29.960Z,-7.58
2018-03-03T07:30:39.053Z,-7.6
2018-03-03T07:31:47.872Z,-7.6
2018-03-03T07:32:56.692Z,-7.57
2018-03-03T07:34:05.511Z,-7.64
2018-03-03T07:35:14.331Z,-7.55
2018-03-03T07:36:23.149Z,-7.55
2018-03-03T07:37:32.244Z,-7.44
2018-03-03T07:38:41.071Z,-7.51
2018-03-03T07:39:49.891Z,-7.39
2018-03-03T07:40:58.715Z,-7.4
2018-03-03T07:42:07.586Z,-7.41
2018-03-03T07:43:16.405Z,-7.41
2018-03-03T07:44:25.238Z,-7.39
2018-03-03T07:45:34.049Z,-7.33
2018-03-03T07:46:43.140Z,-7.37
2018-03-03T07:47:51.963Z,-7.36
2018-03-03T07:49:00.787Z,-7.34
2018-03-03T07:50:09.602Z,-7.25
2018-03-03T07:51:18.704Z,-7.22
2018-03-03T07:52:27.520Z,-7.23
2018-03-03T07:53:36.443Z,-7.19
2018-03-03T07:54:45.261Z,-7
2018-03-03T07:55:54.079Z,-7.05
2018-03-03T07:57:02.900Z,-7.04
2018-03-03T07:58:11.719Z,-7.05
2018-03-03T07:59:20.867Z,-7.05
2018-03-03T08:00:29.975Z,-6.92
2018-03-03T08:01:38.797Z,-6.77
2018-03-03T08:02:47.617Z,-6.74
2018-03-03T08:03:56.437Z,-6.22
2018-03-03T08:05:05.559Z,-6.66
2018-03-03T08:06:14.379Z,-6.52
2018-03-03T08:07:23.478Z,-6.73
2018-03-03T08:08:32.298Z,-6.79
2018-03-03T08:09:41.115Z,-6.69
2018-03-03T08:10:50.086Z,-6.71
2018-03-03T08:11:58.905Z,-6.71
2018-03-03T08:13:07.724Z,-6.71
2018-03-03T08:14:16.542Z,-6.63
2018-03-03T08:15:25.363Z,-6.62
2018-03-03T08:16:34.283Z,-6.55
2018-03-03T08:17:43.433Z,-6.54
2018-03-03T08:18:52.254Z,-6.69
2018-03-03T08:20:01.073Z,-6.63
2018-03-03T08:21:09.891Z,-6.54
2018-03-03T08:22:19.014Z,-6.54
2018-03-03T08:23:27.842Z,-6.44
2018-03-03T08:24:36.662Z,-6.4
2018-03-03T08:25:45.483Z,-6.4
2018-03-03T08:26:54.303Z,-6.29
2018-03-03T08:28:03.375Z,-6.34
2018-03-03T08:29:12.193Z,-6.42
2018-03-03T08:30:21.024Z,-6.29
2018-03-03T08:31:29.844Z,-6.29
2018-03-03T08:32:38.666Z,-6.22
2018-03-03T08:33:47.487Z,-6.16
2018-03-03T08:34:56.306Z,-6.08
2018-03-03T08:36:05.128Z,-5.76
2018-03-03T08:37:13.947Z,-5.92
2018-03-03T08:38:22.768Z,-5.79
2018-03-03T08:39:31.837Z,-6.04
2018-03-03T08:40:40.664Z,-6.21
2018-03-03T08:41:49.477Z,-6.11
2018-03-03T08:42:58.298Z,-6.05
2018-03-03T08:44:07.118Z,-6.07
2018-03-03T08:45:15.995Z,-5.9
2018-03-03T08:46:24.809Z,-5.72
2018-03-03T08:47:33.628Z,-5.69
2018-03-03T08:48:42.453Z,-5.69
2018-03-03T08:49:51.281Z,-5.62
2018-03-03T08:51:00.151Z,-5.61
2018-03-03T08:52:08.971Z,-5.54
2018-03-03T08:53:17.790Z,-5.44
2018-03-03T08:54:26.614Z,-5.57
2018-03-03T08:55:35.437Z,-5.44
2018-03-03T08:56:44.407Z,-5.48
2018-03-03T08:57:53.230Z,-5.3
2018-03-03T08:59:02.049Z,-5.35
2018-03-03T09:00:11.145Z,-5.25
2018-03-03T09:01:19.969Z,-5.25
2018-03-03T09:02:28.786Z,-5.25
2018-03-03T09:03:37.609Z,-5.18
2018-03-03T09:04:46.428Z,-5.19
2018-03-03T09:05:55.527Z,-5.33
2018-03-03T09:07:04.349Z,-5.27
2018-03-03T09:08:13.171Z,-5.3
2018-03-03T09:09:21.992Z,-5.23
2018-03-03T09:10:30.815Z,-5.23
2018-03-03T09:11:39.637Z,-5.14
2018-03-03T09:12:48.460Z,-5.25
2018-03-03T09:13:57.431Z,-5.17
2018-03-03T09:15:06.252Z,-5.1
2018-03-03T09:16:15.075Z,-4.93
2018-03-03T09:17:23.893Z,-4.92
2018-03-03T09:18:32.718Z,-4.95
2018-03-03T09:19:41.789Z,-4.92
2018-03-03T09:20:50.612Z,-4.97
2018-03-03T09:21:59.712Z,-4.92
2018-03-03T09:23:08.813Z,-4.9
2018-03-03T09:24:17.634Z,-4.74
2018-03-03T09:25:26.556Z,-4.72
2018-03-03T09:26:35.379Z,-4.74
2018-03-03T09:27:44.198Z,-4.72
2018-03-03T09:28:53.019Z,-4.63
2018-03-03T09:30:01.840Z,-4.6
2018-03-03T09:31:10.758Z,-4.47
2018-03-03T09:32:19.579Z,-4.43
2018-03-03T09:33:28.401Z,-4.49
2018-03-03T09:34:37.227Z,-4.28
2018-03-03T09:35:46.048Z,-4.11
2018-03-03T09:36:54.969Z,-4.15
2018-03-03T09:38:03.791Z,-4.21
2018-03-03T09:39:12.892Z,-4.15
2018-03-03T09:40:21.719Z,-4.11
2018-03-03T09:41:30.540Z,-4.21
2018-03-03T09:42:39.510Z,-4
2018-03-03T09:43:48.331Z,-3.91
2018-03-03T09:44:57.153Z,-3.97
2018-03-03T09:46:05.995Z,-3.83
2018-03-03T09:47:15.123Z,-3.86
2018-03-03T09:48:23.946Z,-3.88
2018-03-03T09:49:32.767Z,-3.82
2018-03-03T09:50:41.590Z,-3.79
2018-03-03T09:51:50.413Z,-3.78
2018-03-03T09:52:59.235Z,-3.71
2018-03-03T09:54:08.258Z,-3.66
2018-03-03T09:55:17.082Z,-3.67
2018-03-03T09:56:26.180Z,-3.53
2018-03-03T09:57:35.005Z,-3.56
2018-03-03T09:58:44.380Z,-3.57
2018-03-03T09:59:53.483Z,-3.43
2018-03-03T10:01:02.311Z,-3.45
2018-03-03T10:02:11.407Z,-3.46
2018-03-03T10:03:20.228Z,-3.45
2018-03-03T10:04:29.059Z,-3.33
2018-03-03T10:05:37.980Z,-3.3
2018-03-03T10:06:46.804Z,-3.35
2018-03-03T10:07:55.626Z,-3.36
2018-03-03T10:09:04.447Z,-3.25
2018-03-03T10:10:13.272Z,-3.21
2018-03-03T10:11:22.297Z,-3.14
2018-03-03T10:12:31.119Z,-3.07
2018-03-03T10:13:39.941Z,-3.07
2018-03-03T10:14:48.768Z,-2.99
2018-03-03T10:15:57.598Z,-3
2018-03-03T10:17:06.524Z,-3.06
2018-03-03T10:18:15.350Z,-3.05
2018-03-03T10:19:24.177Z,-3.05
2018-03-03T10:20:33.004Z,-2.97
2018-03-03T10:21:41.824Z,-2.81
2018-03-03T10:22:50.802Z,-2.79
2018-03-03T10:23:59.648Z,-2.7
2018-03-03T10:25:08.752Z,-2.67
2018-03-03T10:26:17.591Z,-2.52
2018-03-03T10:27:26.399Z,-2.58
2018-03-03T10:28:35.374Z,-2.67
2018-03-03T10:29:44.199Z,-2.64
2018-03-03T10:30:53.023Z,-2.55
2018-03-03T10:32:01.916Z,-2.6
2018-03-03T10:33:10.746Z,-2.5
2018-03-03T10:34:19.616Z,-2.43
2018-03-03T10:35:28.567Z,-2.42
2018-03-03T10:36:37.392Z,-2.26
2018-03-03T10:37:46.215Z,-2.37
2018-03-03T10:38:55.038Z,-2.45
2018-03-03T10:40:04.012Z,-2.29
2018-03-03T10:41:12.838Z,-2.27
2018-03-03T10:42:21.662Z,-2.24
2018-03-03T10:43:30.486Z,-2.27
2018-03-03T10:44:39.316Z,-2.27
2018-03-03T10:45:48.138Z,-2.2
2018-03-03T10:46:56.965Z,-2.06
2018-03-03T10:48:05.788Z,-2.12
2018-03-03T10:49:14.892Z,-2.12
2018-03-03T10:50:23.768Z,-2.08
2018-03-03T10:51:32.591Z,-2.06
2018-03-03T10:52:41.473Z,-2.12
2018-03-03T10:53:50.403Z,-2.02
2018-03-03T10:54:59.510Z,-2.12
2018-03-03T10:56:08.459Z,-2.05
2018-03-03T10:57:17.367Z,-2
2018-03-03T10:58:26.371Z,-1.97
2018-03-03T10:59:36.097Z,-1.87
2018-03-03T11:00:45.079Z,-1.8
2018-03-03T11:01:54.326Z,-1.94
2018-03-03T11:03:03.478Z,-1.84
2018-03-03T11:04:12.304Z,-1.77
2018-03-03T11:05:21.178Z,-1.7
2018-03-03T11:06:30.102Z,-1.74
2018-03-03T11:07:38.927Z,-1.77
2018-03-03T11:08:47.751Z,-1.74
2018-03-03T11:09:56.578Z,-1.74
2018-03-03T11:11:05.403Z,-1.7
2018-03-03T11:12:14.228Z,-1.52
2018-03-03T11:13:23.058Z,-1.54
2018-03-03T11:14:31.881Z,-1.48
2018-03-03T11:15:40.707Z,-1.48
2018-03-03T11:16:49.631Z,-1.41
2018-03-03T11:17:58.458Z,-1.37
2018-03-03T11:19:07.559Z,-1.37
2018-03-03T11:20:16.384Z,-1.48
2018-03-03T11:21:25.214Z,-1.33
2018-03-03T11:22:34.038Z,-1.19
2018-03-03T11:23:42.865Z,-1.16
2018-03-03T11:24:51.688Z,-1.07
2018-03-03T11:26:00.512Z,-1.07
2018-03-03T11:27:09.338Z,-1.05
2018-03-03T11:28:18.164Z,-0.91
2018-03-03T11:29:26.987Z,-0.94
2018-03-03T11:30:35.814Z,-0.99
2018-03-03T11:31:44.639Z,-0.83
2018-03-03T11:32:53.465Z,-0.83
2018-03-03T11:34:02.294Z,-0.83
2018-03-03T11:35:11.400Z,-0.83
2018-03-03T11:36:20.517Z,-0.69
2018-03-03T11:37:29.359Z,-0.65
2018-03-03T11:38:38.196Z,-0.72
2018-03-03T11:39:47.030Z,-0.65
2018-03-03T11:40:55.918Z,-0.67
2018-03-03T11:42:04.755Z,-0.72
2018-03-03T11:43:13.892Z,-0.69
2018-03-03T11:44:22.731Z,-0.89
2018-03-03T11:45:31.572Z,-0.65
2018-03-03T11:46:40.407Z,-0.65
2018-03-03T11:47:49.242Z,-0.58
2018-03-03T11:48:58.076Z,-0.6
2018-03-03T11:50:06.915Z,-0.54
2018-03-03T11:51:16.027Z,-0.47
2018-03-03T11:52:24.870Z,-0.54
2018-03-03T11:53:33.700Z,-0.54
2018-03-03T11:54:42.526Z,-0.64
2018-03-03T11:55:51.630Z,-0.7
2018-03-03T11:57:00.454Z,-0.49
2018-03-03T11:58:09.280Z,-0.51
2018-03-03T11:59:18.106Z,-0.36
2018-03-03T12:00:27.310Z,-0.43
2018-03-03T12:01:36.135Z,-0.49
2018-03-03T12:02:44.965Z,-0.44
2018-03-03T12:03:53.798Z,-0.44
2018-03-03T12:05:02.617Z,-0.29
2018-03-03T12:06:11.446Z,-0.19
2018-03-03T12:07:20.274Z,-0.16
2018-03-03T12:08:29.133Z,-0.18
2018-03-03T12:09:37.958Z,-0.01
2018-03-03T12:10:46.785Z,0.03
2018-03-03T12:11:55.893Z,-0.08
2018-03-03T12:13:04.993Z,-0.08
2018-03-03T12:14:13.819Z,-0.03
2018-03-03T12:15:22.646Z,0.08
2018-03-03T12:16:31.756Z,0.33
2018-03-03T12:17:40.735Z,0.42
2018-03-03T12:18:49.560Z,0.38
2018-03-03T12:19:58.389Z,0.47
2018-03-03T12:21:07.221Z,0.47
2018-03-03T12:22:16.356Z,0.51
2018-03-03T12:23:25.253Z,0.57
2018-03-03T12:24:34.083Z,0.6
2018-03-03T12:25:42.915Z,0.6
2018-03-03T12:26:51.746Z,0.72
2018-03-03T12:28:00.578Z,0.83
2018-03-03T12:29:09.508Z,0.73
2018-03-03T12:30:18.337Z,0.76
2018-03-03T12:31:27.168Z,0.84
2018-03-03T12:32:35.998Z,0.78
2018-03-03T12:33:44.831Z,0.96
2018-03-03T12:34:53.771Z,0.94
2018-03-03T12:36:02.593Z,1.11
2018-03-03T12:37:11.425Z,1.14
2018-03-03T12:38:20.258Z,1.24
2018-03-03T12:39:29.089Z,1.4
2018-03-03T12:40:37.921Z,1.32
2018-03-03T12:41:46.754Z,1.15
2018-03-03T12:42:55.587Z,1.26
2018-03-03T12:44:04.694Z,1.45
2018-03-03T12:45:13.527Z,1.48
2018-03-03T12:46:22.660Z,1.48
2018-03-03T12:47:31.517Z,1.5
2018-03-03T12:48:40.328Z,1.62
2018-03-03T12:49:49.164Z,1.5
2018-03-03T12:50:57.998Z,1.18
2018-03-03T12:52:06.983Z,1.11
2018-03-03T12:53:15.814Z,1.27
2018-03-03T12:54:24.648Z,1.4
2018-03-03T12:55:33.485Z,1.45
2018-03-03T12:56:42.316Z,1.41
2018-03-03T12:57:51.585Z,1.37
2018-03-03T12:59:00.418Z,1.42
2018-03-03T13:00:09.250Z,1.4
2018-03-03T13:01:18.085Z,1.47
2018-03-03T13:02:26.914Z,1.45
2018-03-03T13:03:35.848Z,1.66
2018-03-03T13:04:44.679Z,1.66
2018-03-03T13:05:53.513Z,1.72
2018-03-03T13:07:02.347Z,1.66
2018-03-03T13:08:11.180Z,1.7
2018-03-03T13:09:20.013Z,1.72
2018-03-03T13:10:28.850Z,1.79
2018-03-03T13:11:37.688Z,1.81
2018-03-03T13:12:46.549Z,1.86
2018-03-03T13:13:55.359Z,1.76
2018-03-03T13:15:04.493Z,1.93
2018-03-03T13:16:13.326Z,1.81
2018-03-03T13:17:22.157Z,1.72
2018-03-03T13:18:31.271Z,1.77
2018-03-03T13:19:40.107Z,1.83
2018-03-03T13:20:49.342Z,1.91
2018-03-03T13:21:58.179Z,2
2018-03-03T13:23:07.015Z,2.06
2018-03-03T13:24:15.850Z,2.12
2018-03-03T13:25:24.686Z,2
2018-03-03T13:26:33.521Z,2.07
2018-03-03T13:27:42.354Z,2.07
2018-03-03T13:28:51.186Z,2.09
2018-03-03T13:30:00.020Z,2.09
2018-03-03T13:31:09.136Z,2.24
2018-03-03T13:32:18.120Z,2.34
2018-03-03T13:33:26.962Z,2.34
2018-03-03T13:34:35.792Z,2.21
2018-03-03T13:35:44.639Z,2.17
2018-03-03T13:36:53.467Z,2.1
2018-03-03T13:38:02.456Z,2.28
2018-03-03T13:39:11.668Z,2.05
2018-03-03T13:40:20.504Z,1.99
2018-03-03T13:41:29.338Z,1.99
2018-03-03T13:42:38.172Z,1.84
2018-03-03T13:43:47.056Z,1.91
2018-03-03T13:44:55.885Z,2.17
2018-03-03T13:46:04.720Z,2.18
2018-03-03T13:47:13.552Z,2.07
2018-03-03T13:48:22.386Z,2.06
2018-03-03T13:49:31.370Z,2.18
2018-03-03T13:50:40.208Z,2.24
2018-03-03T13:51:49.728Z,2.28
2018-03-03T13:52:58.565Z,2.17
2018-03-03T13:54:07.400Z,2.12
2018-03-03T13:55:16.511Z,2.35
2018-03-03T13:56:25.340Z,2.28
2018-03-03T13:57:34.448Z,2.39
2018-03-03T13:58:43.279Z,2.35
2018-03-03T13:59:52.392Z,2.17
2018-03-03T14:01:01.225Z,2.14
2018-03-03T14:02:10.337Z,2.2
2018-03-03T14:03:19.399Z,2.27
2018-03-03T14:04:28.884Z,2.48
2018-03-03T14:05:37.717Z,2.64
2018-03-03T14:06:46.559Z,2.64
2018-03-03T14:07:55.393Z,2.75
2018-03-03T14:09:04.230Z,2.9
2018-03-03T14:10:13.065Z,2.82
2018-03-03T14:11:21.901Z,2.79
2018-03-03T14:12:30.737Z,2.9
2018-03-03T14:13:39.579Z,2.6
2018-03-03T14:14:48.414Z,2.56
2018-03-03T14:15:57.402Z,2.49
2018-03-03T14:17:06.237Z,2.67
2018-03-03T14:18:15.077Z,2.9
2018-03-03T14:19:23.917Z,2.75
2018-03-03T14:20:32.759Z,2.42
2018-03-03T14:21:41.601Z,2.31
2018-03-03T14:22:50.442Z,2.57
2018-03-03T14:23:59.279Z,2.56
2018-03-03T14:25:08.389Z,2.54
2018-03-03T14:26:17.328Z,2.67
2018-03-03T14:27:26.165Z,2.56
2018-03-03T14:28:34.999Z,2.77
2018-03-03T14:29:43.839Z,2.78
2018-03-03T14:30:52.678Z,2.79
2018-03-03T14:32:01.632Z,2.56
2018-03-03T14:33:10.776Z,2.52
2018-03-03T14:34:19.612Z,2.39
2018-03-03T14:35:28.450Z,2.74
2018-03-03T14:36:37.284Z,2.71
2018-03-03T14:37:46.321Z,2.69
2018-03-03T14:38:55.159Z,2.71
2018-03-03T14:40:03.994Z,3
2018-03-03T14:41:12.830Z,2.69
2018-03-03T14:42:21.667Z,2.61
2018-03-03T14:43:30.505Z,2.79
2018-03-03T14:44:39.341Z,2.69
2018-03-03T14:45:48.178Z,2.57
2018-03-03T14:46:57.339Z,2.59
2018-03-03T14:48:06.200Z,2.87
2018-03-03T14:49:15.101Z,2.93
2018-03-03T14:50:24.214Z,2.92
2018-03-03T14:51:33.062Z,2.78
2018-03-03T14:52:41.898Z,2.78
2018-03-03T14:53:50.733Z,2.84
2018-03-03T14:54:59.672Z,2.49